Главная страница
METAR-TAF:

METAR-TAF

Аэропорты :

Алис-Спрингс, Австралия

широта: 23-48S, долгота: 133-53E, высота над уровнем моря: 545 м

Текущие метеонаблюдения

Эта сводка был подготовлена 20 минут назад, в 09:30 UTC
Ветер 15 Узел от восточный
Температура 38°C
Влажность 14%
Давление 1002 hPa
Видимость 10 км и более

METAR: YBAS 240930Z AUTO 09015KT 9999 // NCD 38/06 Q1002 RF00.0/000.0

Время: 19:20 (09:50 UTC)

Прогноз

Эта сводка был подготовлена 2 часа и 29 минут назад, в 07:21 UTC
Прогноз действительный с 24-го 07 UTC до 25-го 06 UTC
Ветер 14 Узел от восточный
Видимость 10 км и более
Нет облачности ниже 1500 м, и нет кучево-дождевой облачности
С 24-го 1800 UTC
Ветер 5 Узел от северо-западный
Видимость 10 км и более
Нет облачности ниже 1500 м, и нет кучево-дождевой облачности
С 25-го 0000 UTC
Ветер 14 Узел от восточный
Видимость 10 км и более
Нет облачности ниже 1500 м, и нет кучево-дождевой облачности

TAF: YBAS 240721Z 2407/2506 08014KT CAVOK FM241800 32005KT CAVOK FM250000 08014KT CAVOK

Метеонаблюдения и прогнозы для более 4000 аэропортов (сводки METAR и TAF).

Имеющиеся станции представлены на карте желтыми и красными точками.

Чтобы увидеть название станции, наведите на нее мышь.

Затем щелкните, чтобы увидеть метеонаблюдения и метеопрогнозы.

Управление картой: чтобы увеличить масштаб, щелкните зеленые кнопки с черным крестиком; чтобы уменьшить масштаб, щелкните зеленую кнопку с тире; для просмотра соседних карт щелкайте зеленые стрелки.


METAR-TAF: